sim
Sign-in with your pilot id or email,
or register
Callsign
Passwort

Schedule Details

Flight Number: DLH2317 (1)
Departure: Luxembourg Findel Airport (ELLX) at 08:25
Arrival: Munich Airport (EDDM) at 09:30
Route: Lufthansa Passenger Schedule. Enter filed route here before submitting Pirep.

Weather Information
Getting current METAR information for ELLX 231420Z 22013KT 9999 FEW042TCU 23/11 Q1007 TEMPO 23015G25KT SHRA SCT025CB
Getting current METAR information for EDDM 231420Z 22006KT 190V260 9999 FEW020TCU SCT043 19/16 Q1009 NOSIG

Schedule Frequency

Route Map